sensor_id;sensor_type;location;lat;lon;timestamp;P1;durP1;ratioP1;P2;durP2;ratioP2
41719;SDS011;27405;53.316;-6.294;2023-07-31T00:01:24;5.18;;;1.80;;
41719;SDS011;27405;53.316;-6.294;2023-07-31T00:03:49;3.38;;;2.00;;
41719;SDS011;27405;53.316;-6.294;2023-07-31T00:06:15;7.10;;;1.90;;
41719;SDS011;27405;53.316;-6.294;2023-07-31T00:08:41;3.10;;;1.73;;
41719;SDS011;27405;53.316;-6.294;2023-07-31T00:11:06;5.82;;;1.95;;
41719;SDS011;27405;53.316;-6.294;2023-07-31T00:13:32;5.50;;;2.00;;
41719;SDS011;27405;53.316;-6.294;2023-07-31T00:15:57;4.93;;;2.05;;
41719;SDS011;27405;53.316;-6.294;2023-07-31T00:18:24;5.90;;;1.80;;
41719;SDS011;27405;53.316;-6.294;2023-07-31T00:20:50;9.20;;;1.88;;
41719;SDS011;27405;53.316;-6.294;2023-07-31T00:23:15;3.50;;;1.77;;
41719;SDS011;27405;53.316;-6.294;2023-07-31T00:25:41;6.38;;;1.70;;
41719;SDS011;27405;53.316;-6.294;2023-07-31T00:28:07;3.35;;;1.70;;
41719;SDS011;27405;53.316;-6.294;2023-07-31T00:30:33;4.60;;;2.03;;
41719;SDS011;27405;53.316;-6.294;2023-07-31T00:32:58;4.88;;;1.60;;
41719;SDS011;27405;53.316;-6.294;2023-07-31T00:35:24;6.13;;;1.80;;
41719;SDS011;27405;53.316;-6.294;2023-07-31T00:37:50;4.68;;;1.60;;
41719;SDS011;27405;53.316;-6.294;2023-07-31T00:40:15;2.97;;;1.55;;
41719;SDS011;27405;53.316;-6.294;2023-07-31T00:42:41;4.15;;;1.67;;
41719;SDS011;27405;53.316;-6.294;2023-07-31T00:45:07;5.25;;;1.83;;
41719;SDS011;27405;53.316;-6.294;2023-07-31T00:47:33;4.35;;;1.83;;
41719;SDS011;27405;53.316;-6.294;2023-07-31T00:49:58;6.82;;;1.48;;
41719;SDS011;27405;53.316;-6.294;2023-07-31T00:52:24;2.97;;;1.60;;
41719;SDS011;27405;53.316;-6.294;2023-07-31T00:54:50;5.88;;;1.75;;
41719;SDS011;27405;53.316;-6.294;2023-07-31T00:57:16;4.40;;;1.63;;
41719;SDS011;27405;53.316;-6.294;2023-07-31T00:59:41;3.70;;;1.55;;
41719;SDS011;27405;53.316;-6.294;2023-07-31T01:02:07;4.50;;;1.77;;
41719;SDS011;27405;53.316;-6.294;2023-07-31T01:04:33;5.32;;;1.60;;
41719;SDS011;27405;53.316;-6.294;2023-07-31T01:07:22;5.40;;;1.83;;
41719;SDS011;27405;53.316;-6.294;2023-07-31T01:13:05;4.07;;;1.50;;
41719;SDS011;27405;53.316;-6.294;2023-07-31T01:15:31;4.60;;;1.27;;
41719;SDS011;27405;53.316;-6.294;2023-07-31T01:17:57;4.05;;;1.42;;
41719;SDS011;27405;53.316;-6.294;2023-07-31T01:20:23;2.97;;;1.10;;
41719;SDS011;27405;53.316;-6.294;2023-07-31T01:28:32;2.83;;;1.20;;
41719;SDS011;27405;53.316;-6.294;2023-07-31T01:31:02;3.22;;;1.00;;
41719;SDS011;27405;53.316;-6.294;2023-07-31T01:33:31;2.88;;;1.33;;
41719;SDS011;27405;53.316;-6.294;2023-07-31T01:35:57;1.95;;;1.20;;
41719;SDS011;27405;53.316;-6.294;2023-07-31T01:38:23;2.03;;;1.30;;
41719;SDS011;27405;53.316;-6.294;2023-07-31T01:40:52;3.17;;;1.40;;
41719;SDS011;27405;53.316;-6.294;2023-07-31T01:43:18;2.13;;;1.13;;
41719;SDS011;27405;53.316;-6.294;2023-07-31T01:45:44;2.58;;;1.27;;
41719;SDS011;27405;53.316;-6.294;2023-07-31T01:48:10;3.13;;;1.20;;
41719;SDS011;27405;53.316;-6.294;2023-07-31T01:50:35;2.67;;;1.25;;
41719;SDS011;27405;53.316;-6.294;2023-07-31T01:53:01;4.75;;;1.60;;
41719;SDS011;27405;53.316;-6.294;2023-07-31T01:55:27;4.45;;;1.50;;
41719;SDS011;27405;53.316;-6.294;2023-07-31T01:57:53;4.35;;;1.50;;
41719;SDS011;27405;53.316;-6.294;2023-07-31T02:00:26;5.43;;;1.55;;
41719;SDS011;27405;53.316;-6.294;2023-07-31T02:02:54;2.60;;;1.30;;
41719;SDS011;27405;53.316;-6.294;2023-07-31T02:05:20;3.83;;;1.40;;
41719;SDS011;27405;53.316;-6.294;2023-07-31T02:07:46;3.05;;;1.40;;
41719;SDS011;27405;53.316;-6.294;2023-07-31T02:10:11;4.75;;;1.25;;
41719;SDS011;27405;53.316;-6.294;2023-07-31T02:12:37;3.22;;;1.20;;
41719;SDS011;27405;53.316;-6.294;2023-07-31T02:15:03;1.85;;;0.98;;
41719;SDS011;27405;53.316;-6.294;2023-07-31T02:17:29;4.15;;;1.20;;
41719;SDS011;27405;53.316;-6.294;2023-07-31T02:19:55;4.10;;;1.40;;
41719;SDS011;27405;53.316;-6.294;2023-07-31T02:22:20;2.45;;;1.23;;
41719;SDS011;27405;53.316;-6.294;2023-07-31T02:24:46;2.58;;;1.15;;
41719;SDS011;27405;53.316;-6.294;2023-07-31T02:27:12;3.47;;;1.15;;
41719;SDS011;27405;53.316;-6.294;2023-07-31T02:29:37;2.85;;;1.38;;
41719;SDS011;27405;53.316;-6.294;2023-07-31T02:32:03;3.30;;;1.40;;
41719;SDS011;27405;53.316;-6.294;2023-07-31T02:34:29;3.58;;;1.30;;
41719;SDS011;27405;53.316;-6.294;2023-07-31T02:36:55;2.40;;;1.45;;
41719;SDS011;27405;53.316;-6.294;2023-07-31T02:39:20;1.67;;;0.90;;
41719;SDS011;27405;53.316;-6.294;2023-07-31T02:41:46;2.67;;;1.30;;
41719;SDS011;27405;53.316;-6.294;2023-07-31T02:44:12;1.90;;;1.20;;
41719;SDS011;27405;53.316;-6.294;2023-07-31T02:46:39;2.05;;;1.08;;
41719;SDS011;27405;53.316;-6.294;2023-07-31T02:49:05;4.60;;;1.10;;
41719;SDS011;27405;53.316;-6.294;2023-07-31T02:51:31;1.83;;;0.93;;
41719;SDS011;27405;53.316;-6.294;2023-07-31T02:53:56;2.45;;;1.10;;
41719;SDS011;27405;53.316;-6.294;2023-07-31T02:56:22;1.42;;;0.80;;
41719;SDS011;27405;53.316;-6.294;2023-07-31T02:58:48;1.40;;;0.60;;
41719;SDS011;27405;53.316;-6.294;2023-07-31T03:01:13;2.25;;;1.10;;
41719;SDS011;27405;53.316;-6.294;2023-07-31T03:03:41;1.20;;;0.77;;
41719;SDS011;27405;53.316;-6.294;2023-07-31T03:06:07;2.07;;;0.80;;
41719;SDS011;27405;53.316;-6.294;2023-07-31T03:08:33;1.23;;;0.88;;
41719;SDS011;27405;53.316;-6.294;2023-07-31T03:10:58;1.20;;;0.70;;
41719;SDS011;27405;53.316;-6.294;2023-07-31T03:13:24;3.20;;;1.08;;
41719;SDS011;27405;53.316;-6.294;2023-07-31T03:15:50;1.50;;;0.73;;
41719;SDS011;27405;53.316;-6.294;2023-07-31T03:18:15;1.02;;;0.80;;
41719;SDS011;27405;53.316;-6.294;2023-07-31T03:20:42;1.90;;;0.70;;
41719;SDS011;27405;53.316;-6.294;2023-07-31T03:23:09;1.05;;;0.80;;
41719;SDS011;27405;53.316;-6.294;2023-07-31T03:25:34;2.67;;;0.90;;
41719;SDS011;27405;53.316;-6.294;2023-07-31T03:28:00;3.38;;;1.08;;
41719;SDS011;27405;53.316;-6.294;2023-07-31T03:30:26;1.33;;;0.73;;
41719;SDS011;27405;53.316;-6.294;2023-07-31T03:32:52;2.97;;;0.70;;
41719;SDS011;27405;53.316;-6.294;2023-07-31T03:35:17;1.40;;;1.00;;
41719;SDS011;27405;53.316;-6.294;2023-07-31T03:37:43;1.85;;;0.95;;
41719;SDS011;27405;53.316;-6.294;2023-07-31T03:40:09;1.17;;;0.70;;
41719;SDS011;27405;53.316;-6.294;2023-07-31T03:42:35;2.60;;;1.27;;
41719;SDS011;27405;53.316;-6.294;2023-07-31T03:45:01;1.10;;;0.90;;
41719;SDS011;27405;53.316;-6.294;2023-07-31T03:47:26;7.22;;;1.45;;
41719;SDS011;27405;53.316;-6.294;2023-07-31T03:49:52;2.13;;;0.90;;
41719;SDS011;27405;53.316;-6.294;2023-07-31T03:52:18;2.05;;;0.90;;
41719;SDS011;27405;53.316;-6.294;2023-07-31T03:54:43;1.55;;;0.90;;
41719;SDS011;27405;53.316;-6.294;2023-07-31T03:57:09;0.75;;;0.70;;
41719;SDS011;27405;53.316;-6.294;2023-07-31T03:59:36;4.43;;;0.95;;
41719;SDS011;27405;53.316;-6.294;2023-07-31T04:02:04;2.20;;;0.80;;
41719;SDS011;27405;53.316;-6.294;2023-07-31T04:04:30;2.58;;;1.00;;
41719;SDS011;27405;53.316;-6.294;2023-07-31T04:06:55;2.70;;;1.20;;
41719;SDS011;27405;53.316;-6.294;2023-07-31T04:09:21;2.72;;;0.80;;
41719;SDS011;27405;53.316;-6.294;2023-07-31T04:11:47;2.58;;;1.08;;
41719;SDS011;27405;53.316;-6.294;2023-07-31T04:14:12;2.92;;;0.85;;
41719;SDS011;27405;53.316;-6.294;2023-07-31T04:16:38;4.32;;;0.88;;
41719;SDS011;27405;53.316;-6.294;2023-07-31T04:19:04;3.42;;;0.90;;
41719;SDS011;27405;53.316;-6.294;2023-07-31T04:21:29;2.47;;;0.82;;
41719;SDS011;27405;53.316;-6.294;2023-07-31T04:23:55;2.30;;;1.00;;
41719;SDS011;27405;53.316;-6.294;2023-07-31T04:26:21;3.20;;;1.05;;
41719;SDS011;27405;53.316;-6.294;2023-07-31T04:28:47;1.67;;;0.77;;
41719;SDS011;27405;53.316;-6.294;2023-07-31T04:31:12;1.45;;;0.70;;
41719;SDS011;27405;53.316;-6.294;2023-07-31T04:33:38;1.42;;;0.75;;
41719;SDS011;27405;53.316;-6.294;2023-07-31T04:36:04;2.85;;;0.73;;
41719;SDS011;27405;53.316;-6.294;2023-07-31T04:38:30;1.48;;;0.73;;
41719;SDS011;27405;53.316;-6.294;2023-07-31T04:40:56;2.17;;;0.82;;
41719;SDS011;27405;53.316;-6.294;2023-07-31T04:43:21;0.93;;;0.70;;
41719;SDS011;27405;53.316;-6.294;2023-07-31T04:45:47;1.92;;;0.90;;
41719;SDS011;27405;53.316;-6.294;2023-07-31T04:48:14;1.30;;;0.60;;
41719;SDS011;27405;53.316;-6.294;2023-07-31T04:50:39;2.65;;;0.68;;
41719;SDS011;27405;53.316;-6.294;2023-07-31T04:53:05;2.75;;;1.10;;
41719;SDS011;27405;53.316;-6.294;2023-07-31T04:55:31;1.15;;;0.63;;
41719;SDS011;27405;53.316;-6.294;2023-07-31T04:57:58;0.75;;;0.68;;
41719;SDS011;27405;53.316;-6.294;2023-07-31T05:00:24;0.70;;;0.63;;
41719;SDS011;27405;53.316;-6.294;2023-07-31T05:02:50;1.10;;;0.52;;
41719;SDS011;27405;53.316;-6.294;2023-07-31T05:05:15;1.35;;;0.60;;
41719;SDS011;27405;53.316;-6.294;2023-07-31T05:07:41;1.33;;;0.68;;
41719;SDS011;27405;53.316;-6.294;2023-07-31T05:10:07;2.35;;;0.77;;
41719;SDS011;27405;53.316;-6.294;2023-07-31T05:12:33;2.33;;;0.85;;
41719;SDS011;27405;53.316;-6.294;2023-07-31T05:14:58;1.83;;;0.80;;
41719;SDS011;27405;53.316;-6.294;2023-07-31T05:17:24;3.25;;;1.00;;
41719;SDS011;27405;53.316;-6.294;2023-07-31T05:19:50;2.22;;;1.15;;
41719;SDS011;27405;53.316;-6.294;2023-07-31T05:22:15;3.45;;;1.38;;
41719;SDS011;27405;53.316;-6.294;2023-07-31T05:24:41;9.00;;;1.42;;
41719;SDS011;27405;53.316;-6.294;2023-07-31T05:27:07;2.15;;;1.10;;
41719;SDS011;27405;53.316;-6.294;2023-07-31T05:29:33;3.47;;;1.48;;
41719;SDS011;27405;53.316;-6.294;2023-07-31T05:31:59;6.13;;;1.52;;
41719;SDS011;27405;53.316;-6.294;2023-07-31T05:34:24;5.35;;;1.75;;
41719;SDS011;27405;53.316;-6.294;2023-07-31T05:36:50;7.45;;;2.03;;
41719;SDS011;27405;53.316;-6.294;2023-07-31T05:39:15;3.40;;;1.70;;
41719;SDS011;27405;53.316;-6.294;2023-07-31T05:41:41;4.15;;;1.92;;
41719;SDS011;27405;53.316;-6.294;2023-07-31T05:44:07;6.28;;;2.00;;
41719;SDS011;27405;53.316;-6.294;2023-07-31T05:46:32;4.82;;;1.75;;
41719;SDS011;27405;53.316;-6.294;2023-07-31T05:48:58;7.88;;;2.20;;
41719;SDS011;27405;53.316;-6.294;2023-07-31T05:51:25;5.85;;;2.08;;
41719;SDS011;27405;53.316;-6.294;2023-07-31T05:53:52;7.18;;;2.08;;
41719;SDS011;27405;53.316;-6.294;2023-07-31T05:56:18;5.25;;;1.90;;
41719;SDS011;27405;53.316;-6.294;2023-07-31T05:58:44;9.93;;;2.67;;
41719;SDS011;27405;53.316;-6.294;2023-07-31T06:01:09;5.45;;;2.13;;
41719;SDS011;27405;53.316;-6.294;2023-07-31T06:03:35;6.68;;;2.33;;
41719;SDS011;27405;53.316;-6.294;2023-07-31T06:06:01;8.15;;;2.50;;
41719;SDS011;27405;53.316;-6.294;2023-07-31T06:08:26;6.80;;;2.55;;
41719;SDS011;27405;53.316;-6.294;2023-07-31T06:10:52;10.45;;;2.67;;
41719;SDS011;27405;53.316;-6.294;2023-07-31T06:13:18;9.23;;;2.60;;
41719;SDS011;27405;53.316;-6.294;2023-07-31T06:15:44;10.40;;;2.80;;
41719;SDS011;27405;53.316;-6.294;2023-07-31T06:18:10;9.65;;;2.75;;
41719;SDS011;27405;53.316;-6.294;2023-07-31T06:20:35;11.48;;;2.83;;
41719;SDS011;27405;53.316;-6.294;2023-07-31T06:23:01;9.45;;;2.85;;
41719;SDS011;27405;53.316;-6.294;2023-07-31T06:25:28;13.18;;;3.13;;
41719;SDS011;27405;53.316;-6.294;2023-07-31T06:27:54;11.55;;;3.25;;
41719;SDS011;27405;53.316;-6.294;2023-07-31T06:30:19;10.07;;;3.10;;
41719;SDS011;27405;53.316;-6.294;2023-07-31T06:32:45;11.25;;;3.20;;
41719;SDS011;27405;53.316;-6.294;2023-07-31T06:35:11;9.45;;;3.00;;
41719;SDS011;27405;53.316;-6.294;2023-07-31T06:37:36;8.93;;;3.15;;
41719;SDS011;27405;53.316;-6.294;2023-07-31T06:40:05;11.52;;;3.58;;
41719;SDS011;27405;53.316;-6.294;2023-07-31T06:42:33;12.77;;;3.40;;
41719;SDS011;27405;53.316;-6.294;2023-07-31T06:45:00;10.70;;;3.20;;
41719;SDS011;27405;53.316;-6.294;2023-07-31T06:47:26;9.68;;;3.05;;
41719;SDS011;27405;53.316;-6.294;2023-07-31T06:49:52;11.30;;;3.08;;
41719;SDS011;27405;53.316;-6.294;2023-07-31T06:52:17;12.90;;;3.03;;
41719;SDS011;27405;53.316;-6.294;2023-07-31T06:54:44;10.85;;;2.97;;
41719;SDS011;27405;53.316;-6.294;2023-07-31T06:57:09;13.00;;;3.65;;
41719;SDS011;27405;53.316;-6.294;2023-07-31T06:59:35;13.57;;;3.60;;
41719;SDS011;27405;53.316;-6.294;2023-07-31T07:02:01;14.77;;;3.92;;
41719;SDS011;27405;53.316;-6.294;2023-07-31T07:04:26;14.48;;;3.20;;
41719;SDS011;27405;53.316;-6.294;2023-07-31T07:06:52;12.20;;;3.38;;
41719;SDS011;27405;53.316;-6.294;2023-07-31T07:09:17;12.90;;;2.95;;
41719;SDS011;27405;53.316;-6.294;2023-07-31T07:11:43;9.75;;;2.92;;
41719;SDS011;27405;53.316;-6.294;2023-07-31T07:14:09;11.05;;;2.92;;
41719;SDS011;27405;53.316;-6.294;2023-07-31T07:16:35;9.93;;;3.08;;
41719;SDS011;27405;53.316;-6.294;2023-07-31T07:19:00;12.13;;;3.13;;
41719;SDS011;27405;53.316;-6.294;2023-07-31T07:21:26;9.30;;;3.05;;
41719;SDS011;27405;53.316;-6.294;2023-07-31T07:23:52;10.68;;;3.55;;
41719;SDS011;27405;53.316;-6.294;2023-07-31T07:26:17;12.68;;;3.30;;
41719;SDS011;27405;53.316;-6.294;2023-07-31T07:28:43;11.93;;;3.17;;
41719;SDS011;27405;53.316;-6.294;2023-07-31T07:31:09;8.90;;;2.83;;
41719;SDS011;27405;53.316;-6.294;2023-07-31T07:33:34;8.05;;;2.50;;
41719;SDS011;27405;53.316;-6.294;2023-07-31T07:36:01;12.73;;;3.35;;
41719;SDS011;27405;53.316;-6.294;2023-07-31T07:38:27;12.43;;;3.10;;
41719;SDS011;27405;53.316;-6.294;2023-07-31T07:40:52;9.73;;;2.95;;
41719;SDS011;27405;53.316;-6.294;2023-07-31T07:43:18;12.77;;;3.55;;
41719;SDS011;27405;53.316;-6.294;2023-07-31T07:45:44;9.45;;;3.08;;
41719;SDS011;27405;53.316;-6.294;2023-07-31T07:48:10;8.55;;;2.60;;
41719;SDS011;27405;53.316;-6.294;2023-07-31T07:50:35;11.65;;;2.92;;
41719;SDS011;27405;53.316;-6.294;2023-07-31T07:53:03;9.15;;;2.53;;
41719;SDS011;27405;53.316;-6.294;2023-07-31T07:55:28;11.48;;;2.80;;
41719;SDS011;27405;53.316;-6.294;2023-07-31T07:57:54;7.63;;;2.40;;
41719;SDS011;27405;53.316;-6.294;2023-07-31T08:00:20;8.45;;;2.50;;
41719;SDS011;27405;53.316;-6.294;2023-07-31T08:02:45;7.65;;;2.30;;
41719;SDS011;27405;53.316;-6.294;2023-07-31T08:05:12;8.13;;;2.22;;
41719;SDS011;27405;53.316;-6.294;2023-07-31T08:07:38;12.85;;;2.85;;
41719;SDS011;27405;53.316;-6.294;2023-07-31T08:10:03;7.25;;;2.03;;
41719;SDS011;27405;53.316;-6.294;2023-07-31T08:12:29;9.20;;;2.10;;
41719;SDS011;27405;53.316;-6.294;2023-07-31T08:14:55;7.57;;;2.35;;
41719;SDS011;27405;53.316;-6.294;2023-07-31T08:17:21;8.10;;;2.03;;
41719;SDS011;27405;53.316;-6.294;2023-07-31T08:19:47;8.65;;;2.25;;
41719;SDS011;27405;53.316;-6.294;2023-07-31T08:22:12;8.45;;;2.47;;
41719;SDS011;27405;53.316;-6.294;2023-07-31T08:24:39;9.93;;;2.10;;
41719;SDS011;27405;53.316;-6.294;2023-07-31T08:27:05;10.90;;;2.53;;
41719;SDS011;27405;53.316;-6.294;2023-07-31T08:29:31;11.57;;;2.72;;
41719;SDS011;27405;53.316;-6.294;2023-07-31T08:31:57;14.10;;;2.50;;
41719;SDS011;27405;53.316;-6.294;2023-07-31T08:34:23;12.68;;;2.60;;
41719;SDS011;27405;53.316;-6.294;2023-07-31T08:36:48;20.50;;;3.60;;
41719;SDS011;27405;53.316;-6.294;2023-07-31T08:39:14;13.10;;;3.17;;
41719;SDS011;27405;53.316;-6.294;2023-07-31T08:41:39;14.70;;;2.97;;
41719;SDS011;27405;53.316;-6.294;2023-07-31T08:44:06;13.75;;;2.97;;
41719;SDS011;27405;53.316;-6.294;2023-07-31T08:46:33;18.63;;;3.63;;
41719;SDS011;27405;53.316;-6.294;2023-07-31T08:48:59;17.33;;;4.53;;
41719;SDS011;27405;53.316;-6.294;2023-07-31T08:51:28;18.92;;;3.60;;
41719;SDS011;27405;53.316;-6.294;2023-07-31T08:53:55;17.52;;;3.40;;
41719;SDS011;27405;53.316;-6.294;2023-07-31T08:56:22;15.13;;;3.47;;
41719;SDS011;27405;53.316;-6.294;2023-07-31T08:58:48;19.63;;;3.15;;
41719;SDS011;27405;53.316;-6.294;2023-07-31T09:01:15;10.40;;;2.88;;
41719;SDS011;27405;53.316;-6.294;2023-07-31T09:03:42;18.17;;;3.05;;
41719;SDS011;27405;53.316;-6.294;2023-07-31T09:06:09;14.73;;;3.22;;
41719;SDS011;27405;53.316;-6.294;2023-07-31T09:08:37;12.00;;;2.50;;
41719;SDS011;27405;53.316;-6.294;2023-07-31T09:11:07;13.55;;;3.08;;
41719;SDS011;27405;53.316;-6.294;2023-07-31T09:13:33;12.35;;;2.65;;
41719;SDS011;27405;53.316;-6.294;2023-07-31T09:15:59;10.55;;;2.58;;
41719;SDS011;27405;53.316;-6.294;2023-07-31T09:18:25;20.10;;;3.17;;
41719;SDS011;27405;53.316;-6.294;2023-07-31T09:21:00;17.23;;;2.92;;
41719;SDS011;27405;53.316;-6.294;2023-07-31T09:23:45;18.05;;;3.58;;
41719;SDS011;27405;53.316;-6.294;2023-07-31T09:26:34;17.55;;;3.30;;
41719;SDS011;27405;53.316;-6.294;2023-07-31T09:29:01;16.42;;;3.50;;
41719;SDS011;27405;53.316;-6.294;2023-07-31T09:34:06;14.93;;;3.40;;
41719;SDS011;27405;53.316;-6.294;2023-07-31T09:36:32;11.32;;;2.75;;
41719;SDS011;27405;53.316;-6.294;2023-07-31T09:39:03;17.35;;;3.28;;
41719;SDS011;27405;53.316;-6.294;2023-07-31T09:41:30;14.05;;;2.75;;
41719;SDS011;27405;53.316;-6.294;2023-07-31T09:43:56;12.73;;;2.90;;
41719;SDS011;27405;53.316;-6.294;2023-07-31T09:46:21;11.02;;;2.83;;
41719;SDS011;27405;53.316;-6.294;2023-07-31T09:48:47;11.77;;;3.05;;
41719;SDS011;27405;53.316;-6.294;2023-07-31T09:51:13;14.25;;;2.83;;
41719;SDS011;27405;53.316;-6.294;2023-07-31T09:53:39;15.27;;;3.40;;
41719;SDS011;27405;53.316;-6.294;2023-07-31T09:56:04;15.93;;;3.85;;
41719;SDS011;27405;53.316;-6.294;2023-07-31T09:58:30;14.40;;;3.42;;
41719;SDS011;27405;53.316;-6.294;2023-07-31T10:01:00;17.17;;;3.45;;
41719;SDS011;27405;53.316;-6.294;2023-07-31T10:03:28;17.20;;;2.97;;
41719;SDS011;27405;53.316;-6.294;2023-07-31T10:05:57;19.02;;;3.10;;
41719;SDS011;27405;53.316;-6.294;2023-07-31T10:08:27;17.50;;;3.92;;
41719;SDS011;27405;53.316;-6.294;2023-07-31T10:10:55;16.38;;;3.72;;
41719;SDS011;27405;53.316;-6.294;2023-07-31T10:13:24;11.50;;;2.92;;
41719;SDS011;27405;53.316;-6.294;2023-07-31T10:15:50;11.75;;;2.97;;
41719;SDS011;27405;53.316;-6.294;2023-07-31T10:18:16;10.52;;;2.60;;
41719;SDS011;27405;53.316;-6.294;2023-07-31T10:20:44;8.85;;;2.08;;
41719;SDS011;27405;53.316;-6.294;2023-07-31T10:23:10;12.95;;;2.63;;
41719;SDS011;27405;53.316;-6.294;2023-07-31T10:25:37;10.80;;;2.50;;
41719;SDS011;27405;53.316;-6.294;2023-07-31T10:28:04;15.10;;;3.60;;
41719;SDS011;27405;53.316;-6.294;2023-07-31T10:30:31;14.07;;;3.35;;
41719;SDS011;27405;53.316;-6.294;2023-07-31T10:32:58;10.65;;;2.97;;
41719;SDS011;27405;53.316;-6.294;2023-07-31T10:35:25;11.15;;;2.60;;
41719;SDS011;27405;53.316;-6.294;2023-07-31T10:37:52;13.38;;;3.45;;
41719;SDS011;27405;53.316;-6.294;2023-07-31T10:40:18;12.65;;;2.53;;
41719;SDS011;27405;53.316;-6.294;2023-07-31T10:42:51;16.77;;;3.05;;
41719;SDS011;27405;53.316;-6.294;2023-07-31T10:45:34;10.40;;;2.60;;
41719;SDS011;27405;53.316;-6.294;2023-07-31T10:48:14;13.70;;;3.05;;
41719;SDS011;27405;53.316;-6.294;2023-07-31T10:53:30;10.57;;;3.20;;
41719;SDS011;27405;53.316;-6.294;2023-07-31T10:56:03;14.13;;;3.15;;
41719;SDS011;27405;53.316;-6.294;2023-07-31T10:58:39;11.70;;;2.80;;
41719;SDS011;27405;53.316;-6.294;2023-07-31T11:01:05;13.45;;;2.90;;
41719;SDS011;27405;53.316;-6.294;2023-07-31T11:03:41;9.68;;;2.38;;
41719;SDS011;27405;53.316;-6.294;2023-07-31T11:06:14;13.93;;;3.28;;
41719;SDS011;27405;53.316;-6.294;2023-07-31T11:08:44;12.93;;;3.15;;
41719;SDS011;27405;53.316;-6.294;2023-07-31T11:11:15;13.10;;;2.80;;
41719;SDS011;27405;53.316;-6.294;2023-07-31T11:13:49;12.95;;;3.00;;
41719;SDS011;27405;53.316;-6.294;2023-07-31T11:16:19;10.60;;;2.70;;
41719;SDS011;27405;53.316;-6.294;2023-07-31T11:18:46;11.25;;;2.92;;
41719;SDS011;27405;53.316;-6.294;2023-07-31T11:21:23;10.88;;;2.80;;
41719;SDS011;27405;53.316;-6.294;2023-07-31T11:23:53;9.50;;;2.70;;
41719;SDS011;27405;53.316;-6.294;2023-07-31T11:26:23;12.60;;;2.80;;
41719;SDS011;27405;53.316;-6.294;2023-07-31T11:28:49;9.48;;;2.50;;
41719;SDS011;27405;53.316;-6.294;2023-07-31T11:31:16;10.65;;;2.83;;
41719;SDS011;27405;53.316;-6.294;2023-07-31T11:33:42;9.43;;;2.28;;
41719;SDS011;27405;53.316;-6.294;2023-07-31T11:36:18;13.73;;;2.80;;
41719;SDS011;27405;53.316;-6.294;2023-07-31T11:38:45;7.80;;;2.47;;
41719;SDS011;27405;53.316;-6.294;2023-07-31T11:41:13;11.20;;;3.20;;
41719;SDS011;27405;53.316;-6.294;2023-07-31T11:43:40;12.55;;;2.83;;
41719;SDS011;27405;53.316;-6.294;2023-07-31T11:46:06;13.02;;;2.75;;
41719;SDS011;27405;53.316;-6.294;2023-07-31T11:48:33;10.82;;;2.78;;
41719;SDS011;27405;53.316;-6.294;2023-07-31T11:51:01;14.05;;;3.25;;
41719;SDS011;27405;53.316;-6.294;2023-07-31T11:53:30;9.23;;;2.78;;
41719;SDS011;27405;53.316;-6.294;2023-07-31T11:56:00;9.05;;;2.20;;
41719;SDS011;27405;53.316;-6.294;2023-07-31T11:58:29;8.63;;;2.08;;
41719;SDS011;27405;53.316;-6.294;2023-07-31T12:00:56;9.45;;;2.65;;
41719;SDS011;27405;53.316;-6.294;2023-07-31T12:03:23;9.10;;;2.10;;
41719;SDS011;27405;53.316;-6.294;2023-07-31T12:05:49;9.73;;;2.40;;
41719;SDS011;27405;53.316;-6.294;2023-07-31T12:08:15;10.25;;;2.13;;
41719;SDS011;27405;53.316;-6.294;2023-07-31T12:10:41;11.32;;;2.40;;
41719;SDS011;27405;53.316;-6.294;2023-07-31T12:13:10;6.68;;;2.20;;
41719;SDS011;27405;53.316;-6.294;2023-07-31T12:15:44;6.38;;;1.88;;
41719;SDS011;27405;53.316;-6.294;2023-07-31T12:18:13;7.55;;;1.88;;
41719;SDS011;27405;53.316;-6.294;2023-07-31T12:20:41;10.40;;;2.65;;
41719;SDS011;27405;53.316;-6.294;2023-07-31T12:23:15;6.05;;;2.00;;
41719;SDS011;27405;53.316;-6.294;2023-07-31T12:28:27;6.45;;;1.70;;
41719;SDS011;27405;53.316;-6.294;2023-07-31T12:30:56;6.32;;;1.60;;
41719;SDS011;27405;53.316;-6.294;2023-07-31T12:33:32;7.25;;;2.00;;
41719;SDS011;27405;53.316;-6.294;2023-07-31T12:36:00;7.47;;;2.03;;
41719;SDS011;27405;53.316;-6.294;2023-07-31T12:38:28;5.75;;;1.90;;
41719;SDS011;27405;53.316;-6.294;2023-07-31T12:40:54;9.20;;;2.30;;
41719;SDS011;27405;53.316;-6.294;2023-07-31T12:43:19;7.53;;;2.25;;
41719;SDS011;27405;53.316;-6.294;2023-07-31T12:45:45;5.68;;;1.83;;
41719;SDS011;27405;53.316;-6.294;2023-07-31T12:48:12;11.43;;;2.28;;
41719;SDS011;27405;53.316;-6.294;2023-07-31T12:50:38;6.68;;;2.42;;
41719;SDS011;27405;53.316;-6.294;2023-07-31T12:53:04;8.63;;;2.20;;
41719;SDS011;27405;53.316;-6.294;2023-07-31T12:55:30;7.18;;;2.20;;
41719;SDS011;27405;53.316;-6.294;2023-07-31T12:57:55;7.15;;;2.28;;
41719;SDS011;27405;53.316;-6.294;2023-07-31T13:00:21;4.47;;;1.98;;
41719;SDS011;27405;53.316;-6.294;2023-07-31T13:02:47;10.70;;;2.60;;
41719;SDS011;27405;53.316;-6.294;2023-07-31T13:05:14;8.07;;;2.38;;
41719;SDS011;27405;53.316;-6.294;2023-07-31T13:07:40;9.57;;;2.35;;
41719;SDS011;27405;53.316;-6.294;2023-07-31T13:10:06;9.75;;;2.60;;
41719;SDS011;27405;53.316;-6.294;2023-07-31T13:12:32;5.45;;;2.15;;
41719;SDS011;27405;53.316;-6.294;2023-07-31T13:14:58;9.95;;;2.58;;
41719;SDS011;27405;53.316;-6.294;2023-07-31T13:17:24;7.45;;;2.03;;
41719;SDS011;27405;53.316;-6.294;2023-07-31T13:19:50;9.93;;;2.42;;
41719;SDS011;27405;53.316;-6.294;2023-07-31T13:22:16;8.90;;;2.15;;
41719;SDS011;27405;53.316;-6.294;2023-07-31T13:24:41;9.18;;;2.28;;
41719;SDS011;27405;53.316;-6.294;2023-07-31T13:27:07;6.97;;;2.13;;
41719;SDS011;27405;53.316;-6.294;2023-07-31T13:29:33;9.23;;;2.53;;
41719;SDS011;27405;53.316;-6.294;2023-07-31T13:31:58;8.45;;;2.20;;
41719;SDS011;27405;53.316;-6.294;2023-07-31T13:34:24;9.13;;;2.35;;
41719;SDS011;27405;53.316;-6.294;2023-07-31T13:36:50;8.68;;;2.53;;
41719;SDS011;27405;53.316;-6.294;2023-07-31T13:39:15;10.07;;;3.00;;
41719;SDS011;27405;53.316;-6.294;2023-07-31T13:41:41;11.38;;;2.50;;
41719;SDS011;27405;53.316;-6.294;2023-07-31T13:44:07;9.20;;;2.50;;
41719;SDS011;27405;53.316;-6.294;2023-07-31T13:46:32;12.70;;;2.80;;
41719;SDS011;27405;53.316;-6.294;2023-07-31T13:48:58;12.20;;;2.90;;
41719;SDS011;27405;53.316;-6.294;2023-07-31T13:51:24;11.60;;;2.60;;
41719;SDS011;27405;53.316;-6.294;2023-07-31T13:53:52;10.53;;;2.63;;
41719;SDS011;27405;53.316;-6.294;2023-07-31T13:56:18;18.13;;;3.00;;
41719;SDS011;27405;53.316;-6.294;2023-07-31T13:58:43;31.98;;;3.55;;
41719;SDS011;27405;53.316;-6.294;2023-07-31T14:01:09;13.32;;;3.22;;
41719;SDS011;27405;53.316;-6.294;2023-07-31T14:03:35;11.23;;;2.35;;
41719;SDS011;27405;53.316;-6.294;2023-07-31T14:06:00;11.07;;;2.72;;
41719;SDS011;27405;53.316;-6.294;2023-07-31T14:08:26;10.07;;;2.35;;
41719;SDS011;27405;53.316;-6.294;2023-07-31T14:10:52;10.82;;;2.67;;
41719;SDS011;27405;53.316;-6.294;2023-07-31T14:13:17;8.65;;;2.17;;
41719;SDS011;27405;53.316;-6.294;2023-07-31T14:15:43;11.02;;;2.28;;
41719;SDS011;27405;53.316;-6.294;2023-07-31T14:18:09;7.70;;;1.85;;
41719;SDS011;27405;53.316;-6.294;2023-07-31T14:20:35;7.90;;;2.08;;
41719;SDS011;27405;53.316;-6.294;2023-07-31T14:23:03;6.60;;;1.90;;
41719;SDS011;27405;53.316;-6.294;2023-07-31T14:25:29;6.15;;;1.90;;
41719;SDS011;27405;53.316;-6.294;2023-07-31T14:27:55;4.90;;;1.75;;
41719;SDS011;27405;53.316;-6.294;2023-07-31T14:30:20;10.43;;;2.47;;
41719;SDS011;27405;53.316;-6.294;2023-07-31T14:32:46;9.60;;;2.15;;
41719;SDS011;27405;53.316;-6.294;2023-07-31T14:35:12;9.82;;;2.00;;
41719;SDS011;27405;53.316;-6.294;2023-07-31T14:37:41;9.10;;;2.28;;
41719;SDS011;27405;53.316;-6.294;2023-07-31T14:40:09;10.93;;;2.25;;
41719;SDS011;27405;53.316;-6.294;2023-07-31T14:42:36;8.52;;;2.08;;
41719;SDS011;27405;53.316;-6.294;2023-07-31T14:45:02;8.90;;;2.22;;